Time;durP1;ratioP1;P1;durP2;ratioP2;P2;SDS_P1;SDS_P2;PMS_P1;PMS_P2;Temp;Humidity;BMP_temperature;BMP_pressure;BME280_temperature;BME280_humidity;BME280_pressure;Samples;Min_cycle;Max_cycle;Signal;HPM_P1;HPM_P2
2021/07/17 00:00:53;;;;;;;6.38;3.30;;;20.30;76.80;;;;;;5044819;28;20128;-71
2021/07/17 00:03:18;;;;;;;6.28;3.00;;;20.30;77.10;;;;;;5027927;28;20029;-71
2021/07/17 00:05:45;;;;;;;6.97;3.65;;;20.30;77.10;;;;;;5044736;28;20033;-70
2021/07/17 00:08:11;;;;;;;5.43;3.35;;;20.30;77.10;;;;;;5044941;28;20320;-70
2021/07/17 00:10:42;;;;;;;7.07;3.58;;;20.30;77.30;;;;;;5044655;28;20053;-71
2021/07/17 00:13:08;;;;;;;6.78;3.97;;;20.20;77.30;;;;;;5027187;28;20033;-70
2021/07/17 00:15:34;;;;;;;4.60;3.75;;;20.30;77.10;;;;;;5026846;28;20044;-70
2021/07/17 00:17:59;;;;;;;5.47;3.40;;;20.30;77.30;;;;;;5027526;28;20052;-69
2021/07/17 00:20:25;;;;;;;5.75;3.97;;;20.20;77.40;;;;;;5027243;28;20044;-71
2021/07/17 00:22:51;;;;;;;9.35;4.45;;;20.10;77.70;;;;;;5044178;28;20045;-71
2021/07/17 00:25:18;;;;;;;7.13;4.07;;;20.20;77.70;;;;;;5026684;28;20044;-71
2021/07/17 00:27:44;;;;;;;4.93;3.83;;;20.10;78.00;;;;;;5026544;28;20045;-71
2021/07/17 00:30:10;;;;;;;5.47;3.85;;;20.10;78.00;;;;;;5027392;28;20372;-70
2021/07/17 00:32:35;;;;;;;5.65;3.97;;;20.10;78.10;;;;;;5027050;28;20037;-70
2021/07/17 00:35:01;;;;;;;6.43;4.45;;;20.00;78.20;;;;;;5026525;28;20101;-70
2021/07/17 00:37:26;;;;;;;5.75;4.30;;;19.90;78.60;;;;;;5043769;28;20398;-70
2021/07/17 00:39:52;;;;;;;11.38;4.07;;;19.80;78.80;;;;;;5043794;28;20048;-70
2021/07/17 00:42:18;;;;;;;4.90;3.90;;;19.90;78.70;;;;;;5044793;28;20048;-70
2021/07/17 00:44:43;;;;;;;5.80;4.15;;;19.90;78.40;;;;;;5044436;28;20340;-70
2021/07/17 00:47:09;;;;;;;4.93;4.10;;;20.00;78.40;;;;;;5044299;28;20034;-70
2021/07/17 00:49:34;;;;;;;5.70;4.07;;;20.00;78.30;;;;;;5026302;28;20402;-70
2021/07/17 00:52:00;;;;;;;4.60;3.90;;;20.20;77.90;;;;;;5026628;28;20359;-70
2021/07/17 00:54:25;;;;;;;5.80;4.25;;;20.20;77.90;;;;;;5043686;28;20068;-69
2021/07/17 00:56:52;;;;;;;6.38;4.07;;;20.20;78.00;;;;;;5026841;28;20029;-70
2021/07/17 00:59:18;;;;;;;5.65;4.35;;;20.20;78.00;;;;;;5026178;28;20030;-69
2021/07/17 01:01:45;;;;;;;6.63;4.50;;;20.00;78.20;;;;;;5043949;28;20025;-70
2021/07/17 01:04:11;;;;;;;5.63;4.20;;;20.10;78.20;;;;;;5043599;28;20386;-69
2021/07/17 01:06:37;;;;;;;6.85;3.90;;;20.10;78.20;;;;;;5026034;28;20026;-70
2021/07/17 01:09:02;;;;;;;5.80;3.95;;;20.20;78.10;;;;;;5026626;28;20021;-69
2021/07/17 01:11:28;;;;;;;5.45;4.10;;;20.20;78.10;;;;;;5044007;28;20033;-69
2021/07/17 01:13:53;;;;;;;5.35;4.47;;;20.10;78.10;;;;;;5042290;28;20040;-70
2021/07/17 01:16:19;;;;;;;5.60;4.50;;;20.10;78.30;;;;;;5043441;28;20025;-70
2021/07/17 01:18:44;;;;;;;5.40;4.28;;;20.10;78.20;;;;;;5025943;28;20032;-70
2021/07/17 01:21:16;;;;;;;6.40;4.60;;;20.10;78.30;;;;;;5044172;28;20325;-70
2021/07/17 01:23:42;;;;;;;5.47;4.60;;;20.10;78.40;;;;;;5043939;28;20075;-70
2021/07/17 01:26:08;;;;;;;6.45;5.00;;;20.00;78.50;;;;;;5043647;28;20037;-70
2021/07/17 01:28:33;;;;;;;5.95;4.78;;;20.00;78.70;;;;;;5025885;28;20351;-69
2021/07/17 01:30:59;;;;;;;5.00;4.13;;;19.80;78.90;;;;;;5043488;28;20029;-69
2021/07/17 01:33:24;;;;;;;6.38;4.63;;;19.80;79.00;;;;;;5043280;28;20037;-69
2021/07/17 01:35:52;;;;;;;5.90;4.65;;;19.80;78.80;;;;;;5043790;28;20030;-70
2021/07/17 01:38:17;;;;;;;5.05;4.30;;;19.90;78.60;;;;;;5043186;28;20045;-69
2021/07/17 01:40:47;;;;;;;4.57;4.07;;;20.00;78.30;;;;;;5043124;28;20091;-70
2021/07/17 01:43:12;;;;;;;5.05;4.50;;;20.10;78.30;;;;;;5043327;28;20328;-70
2021/07/17 01:45:39;;;;;;;6.40;4.78;;;20.20;77.60;;;;;;5043250;28;20037;-70
2021/07/17 01:48:05;;;;;;;5.85;4.60;;;20.10;77.80;;;;;;5044043;28;20311;-70
2021/07/17 01:50:30;;;;;;;4.93;4.15;;;20.10;78.00;;;;;;5043385;28;20033;-71
2021/07/17 01:52:56;;;;;;;5.63;4.35;;;20.20;77.70;;;;;;5026122;28;20065;-69
2021/07/17 01:55:22;;;;;;;7.28;3.92;;;20.10;77.90;;;;;;5025833;28;20045;-69
2021/07/17 01:57:48;;;;;;;5.40;4.28;;;20.00;78.10;;;;;;5043598;28;20052;-69
2021/07/17 02:00:14;;;;;;;7.38;4.50;;;20.10;77.90;;;;;;5026658;28;20309;-69
2021/07/17 02:02:40;;;;;;;6.22;4.38;;;20.10;77.90;;;;;;5043532;28;20097;-69
2021/07/17 02:05:05;;;;;;;5.68;4.32;;;20.10;78.10;;;;;;5025946;28;20037;-69
2021/07/17 02:07:32;;;;;;;6.97;4.20;;;20.10;78.00;;;;;;5043011;28;20033;-69
2021/07/17 02:09:58;;;;;;;5.43;4.20;;;20.10;77.90;;;;;;5044157;28;20075;-69
2021/07/17 02:12:24;;;;;;;6.80;4.10;;;20.10;77.80;;;;;;5047095;28;20037;-69
2021/07/17 02:14:51;;;;;;;6.15;3.80;;;20.10;77.70;;;;;;5030032;28;20335;-69
2021/07/17 02:17:16;;;;;;;5.55;4.57;;;20.00;77.80;;;;;;5047174;28;20040;-69
2021/07/17 02:19:42;;;;;;;6.50;4.90;;;20.00;77.70;;;;;;5046819;28;20100;-70
2021/07/17 02:22:07;;;;;;;6.10;4.20;;;19.90;77.90;;;;;;5029086;28;20336;-69
2021/07/17 02:24:33;;;;;;;7.22;4.18;;;19.90;78.00;;;;;;5046803;28;20029;-69
2021/07/17 02:26:58;;;;;;;5.10;3.95;;;19.90;78.10;;;;;;5047291;28;20020;-69
2021/07/17 02:29:24;;;;;;;5.35;3.80;;;19.90;77.80;;;;;;5046895;28;20041;-69
2021/07/17 02:31:49;;;;;;;8.00;4.00;;;19.80;78.10;;;;;;5046412;28;20063;-69
2021/07/17 02:34:15;;;;;;;6.97;4.13;;;19.90;77.80;;;;;;5046365;28;20071;-69
2021/07/17 02:36:41;;;;;;;5.55;4.05;;;19.80;78.00;;;;;;5046440;28;20041;-69
2021/07/17 02:39:07;;;;;;;4.97;4.13;;;19.80;78.10;;;;;;5029110;28;20049;-69
2021/07/17 02:41:32;;;;;;;4.63;3.90;;;19.80;78.10;;;;;;5045574;28;20194;-69
2021/07/17 02:43:58;;;;;;;5.32;3.90;;;19.70;78.20;;;;;;5046260;28;20033;-69
2021/07/17 02:46:23;;;;;;;9.05;4.70;;;19.70;78.10;;;;;;5046133;28;20045;-69
2021/07/17 02:48:49;;;;;;;5.18;4.40;;;19.60;78.00;;;;;;5028800;28;20030;-69
2021/07/17 02:51:14;;;;;;;5.63;4.55;;;19.70;77.90;;;;;;5046588;28;20097;-69
2021/07/17 02:53:40;;;;;;;5.45;4.30;;;19.60;77.90;;;;;;5045369;28;20264;-69
2021/07/17 02:56:06;;;;;;;5.07;3.85;;;19.60;77.90;;;;;;5045927;28;20044;-69
2021/07/17 02:58:31;;;;;;;6.03;4.53;;;19.60;77.90;;;;;;5012323;28;20029;-69
2021/07/17 03:00:57;;;;;;;6.32;4.75;;;19.70;77.70;;;;;;5045804;28;20033;-69
2021/07/17 03:03:22;;;;;;;6.57;4.70;;;19.50;78.10;;;;;;5045897;28;20041;-69
2021/07/17 03:05:48;;;;;;;7.40;4.43;;;19.50;78.30;;;;;;5046331;28;20091;-69
2021/07/17 03:08:16;;;;;;;7.57;4.80;;;19.50;78.20;;;;;;5046137;28;20048;-69
2021/07/17 03:10:42;;;;;;;6.63;4.47;;;19.50;78.10;;;;;;5045914;28;20033;-69
2021/07/17 03:13:09;;;;;;;5.70;4.60;;;19.40;78.40;;;;;;5028052;28;20038;-69
2021/07/17 03:15:34;;;;;;;6.20;4.70;;;19.40;78.40;;;;;;5045622;28;20340;-69
2021/07/17 03:18:00;;;;;;;6.25;5.00;;;19.50;78.10;;;;;;5046416;28;20048;-69
2021/07/17 03:20:26;;;;;;;6.22;4.75;;;19.40;78.10;;;;;;5027855;28;20045;-69
2021/07/17 03:22:51;;;;;;;7.85;5.00;;;19.30;78.40;;;;;;5028321;28;20033;-69
2021/07/17 03:25:17;;;;;;;7.60;4.82;;;19.40;78.00;;;;;;5045872;28;20217;-69
2021/07/17 03:27:42;;;;;;;5.75;4.47;;;19.40;77.90;;;;;;5045685;28;20038;-69
2021/07/17 03:30:08;;;;;;;9.73;5.25;;;19.40;77.70;;;;;;5028792;28;20057;-69
2021/07/17 03:32:34;;;;;;;5.47;4.65;;;19.40;77.70;;;;;;5045773;28;20033;-69
2021/07/17 03:35:00;;;;;;;6.38;5.20;;;19.40;77.50;;;;;;5045246;28;20053;-69
2021/07/17 03:37:25;;;;;;;5.72;4.97;;;19.50;77.30;;;;;;5045120;28;20049;-69
2021/07/17 03:39:51;;;;;;;6.25;5.18;;;19.40;77.40;;;;;;5045301;28;20033;-69
2021/07/17 03:42:16;;;;;;;8.95;5.38;;;19.30;77.60;;;;;;5045926;28;20029;-69
2021/07/17 03:44:42;;;;;;;6.85;5.32;;;19.30;77.80;;;;;;5028029;28;20033;-69
2021/07/17 03:47:07;;;;;;;6.13;5.18;;;19.30;77.80;;;;;;5045332;28;20136;-69
2021/07/17 03:49:39;;;;;;;7.82;5.60;;;19.20;77.90;;;;;;5027279;28;20087;-70
2021/07/17 03:52:12;;;;;;;7.53;5.28;;;19.30;77.70;;;;;;5013235;28;20325;-69
2021/07/17 03:54:38;;;;;;;9.18;5.72;;;19.40;77.70;;;;;;5035380;28;20182;-71
2021/07/17 03:57:04;;;;;;;8.82;5.03;;;19.30;78.20;;;;;;5045645;28;20049;-70
2021/07/17 03:59:29;;;;;;;7.65;5.22;;;19.30;78.50;;;;;;5027742;28;20087;-71
2021/07/17 04:01:55;;;;;;;7.03;5.25;;;19.30;78.60;;;;;;5045069;28;20041;-71
2021/07/17 04:04:20;;;;;;;9.10;5.63;;;19.30;79.00;;;;;;5045109;28;20040;-70
2021/07/17 04:06:46;;;;;;;7.40;6.07;;;19.30;79.10;;;;;;5044935;28;20026;-70
2021/07/17 04:09:12;;;;;;;7.90;5.97;;;19.30;79.50;;;;;;5045102;28;20033;-70
2021/07/17 04:11:37;;;;;;;7.50;6.05;;;19.30;79.70;;;;;;5044806;28;20256;-71
2021/07/17 04:14:03;;;;;;;9.48;5.97;;;19.30;79.70;;;;;;5044495;28;20087;-70
2021/07/17 04:16:28;;;;;;;7.40;5.78;;;19.30;79.60;;;;;;5044715;28;20245;-71
2021/07/17 04:18:54;;;;;;;8.55;5.88;;;19.40;79.20;;;;;;5026917;28;20072;-70
2021/07/17 04:21:19;;;;;;;7.35;6.05;;;19.40;79.20;;;;;;5044824;28;20089;-70
2021/07/17 04:23:45;;;;;;;7.85;5.47;;;19.50;79.40;;;;;;5044779;28;20085;-70
2021/07/17 04:26:10;;;;;;;7.80;6.30;;;19.50;79.20;;;;;;5044346;28;20029;-70
2021/07/17 04:28:36;;;;;;;7.70;6.03;;;19.60;79.10;;;;;;5044357;28;20037;-69
2021/07/17 04:31:02;;;;;;;7.93;6.32;;;19.70;78.90;;;;;;5026793;28;20049;-70
2021/07/17 04:33:28;;;;;;;8.02;6.07;;;19.60;79.30;;;;;;5043411;28;20033;-70
2021/07/17 04:35:53;;;;;;;6.38;5.70;;;19.70;79.20;;;;;;5044875;28;20025;-70
2021/07/17 04:38:19;;;;;;;8.80;6.68;;;19.70;79.00;;;;;;5026389;28;20041;-70
2021/07/17 04:40:45;;;;;;;6.47;5.75;;;19.70;79.20;;;;;;5043866;28;20049;-70
2021/07/17 04:43:10;;;;;;;9.18;6.65;;;19.70;79.20;;;;;;5026473;28;20040;-70
2021/07/17 04:45:36;;;;;;;8.85;7.03;;;19.60;79.60;;;;;;5026360;28;20033;-70
2021/07/17 04:48:04;;;;;;;9.98;6.97;;;19.60;79.80;;;;;;5044700;28;20033;-70
2021/07/17 04:50:34;;;;;;;8.75;6.82;;;19.60;79.90;;;;;;5044037;28;20033;-70
2021/07/17 04:53:00;;;;;;;9.73;7.28;;;19.60;79.80;;;;;;5043736;28;20198;-70
2021/07/17 04:55:26;;;;;;;10.98;8.15;;;19.60;79.90;;;;;;5043751;28;20030;-70
2021/07/17 04:57:52;;;;;;;12.27;8.32;;;19.60;79.90;;;;;;5043753;28;20029;-70
2021/07/17 05:00:18;;;;;;;12.02;9.50;;;19.70;79.90;;;;;;5027008;28;20037;-69
2021/07/17 05:02:47;;;;;;;11.45;8.27;;;19.70;80.00;;;;;;5026235;28;20044;-70
2021/07/17 05:05:15;;;;;;;14.10;9.13;;;19.70;80.10;;;;;;5043026;28;20112;-70
2021/07/17 05:07:40;;;;;;;12.90;9.13;;;19.70;80.10;;;;;;5043839;28;20093;-70
2021/07/17 05:10:06;;;;;;;15.00;10.93;;;19.70;80.30;;;;;;5043694;28;20068;-70
2021/07/17 05:12:32;;;;;;;19.73;11.32;;;19.60;80.80;;;;;;5026313;28;20072;-70
2021/07/17 05:14:57;;;;;;;19.48;11.80;;;19.60;80.60;;;;;;5043989;28;20033;-70
2021/07/17 05:17:22;;;;;;;16.25;11.60;;;19.70;80.50;;;;;;5043828;28;20088;-71
2021/07/17 05:19:48;;;;;;;18.55;12.88;;;19.70;80.60;;;;;;5043614;28;20080;-72
2021/07/17 05:22:13;;;;;;;22.70;14.23;;;19.70;80.80;;;;;;5025875;28;20025;-71
2021/07/17 05:24:40;;;;;;;21.52;13.48;;;19.70;80.90;;;;;;5043852;28;20064;-71
2021/07/17 05:27:06;;;;;;;19.95;13.48;;;19.80;80.70;;;;;;5044295;28;20204;-71
2021/07/17 05:29:32;;;;;;;25.95;15.38;;;19.80;80.90;;;;;;5043872;28;20037;-70
2021/07/17 05:31:57;;;;;;;25.90;15.68;;;19.70;81.30;;;;;;5043517;28;20037;-70
2021/07/17 05:34:23;;;;;;;21.58;14.95;;;19.70;81.20;;;;;;5043484;28;20034;-70
2021/07/17 05:36:48;;;;;;;23.77;15.35;;;19.80;81.00;;;;;;5043229;28;20034;-69
2021/07/17 05:39:14;;;;;;;22.40;14.68;;;19.80;81.30;;;;;;5043647;28;20336;-70
2021/07/17 05:41:39;;;;;;;24.85;14.90;;;19.80;81.30;;;;;;5026094;28;20092;-71
2021/07/17 05:44:05;;;;;;;21.70;14.40;;;19.70;81.40;;;;;;5044989;28;20037;-70
2021/07/17 05:46:30;;;;;;;23.92;15.75;;;19.80;81.00;;;;;;5047248;28;20030;-70
2021/07/17 05:48:56;;;;;;;25.63;16.45;;;19.80;81.30;;;;;;5047273;28;20068;-70
2021/07/17 05:51:23;;;;;;;25.48;16.00;;;19.80;81.00;;;;;;5048299;28;20041;-70
2021/07/17 05:53:48;;;;;;;27.77;16.17;;;19.80;81.00;;;;;;5047343;28;20319;-70
2021/07/17 05:56:14;;;;;;;27.45;18.58;;;19.80;81.30;;;;;;5047496;28;20029;-70
2021/07/17 05:58:39;;;;;;;27.98;18.67;;;19.90;81.20;;;;;;5029841;28;20037;-70
2021/07/17 06:01:05;;;;;;;29.17;18.35;;;19.90;81.40;;;;;;5047319;28;20223;-70
2021/07/17 06:03:31;;;;;;;27.52;17.58;;;20.00;81.20;;;;;;5047128;28;20029;-69
2021/07/17 06:05:56;;;;;;;29.48;19.25;;;20.10;81.20;;;;;;5047479;28;20029;-70
2021/07/17 06:08:22;;;;;;;30.63;19.33;;;20.10;81.00;;;;;;5047312;28;20045;-69
2021/07/17 06:10:48;;;;;;;34.58;19.23;;;20.10;80.80;;;;;;5029458;28;20041;-74
2021/07/17 06:13:13;;;;;;;27.50;18.10;;;20.10;81.00;;;;;;5045898;28;20037;-69
2021/07/17 06:15:39;;;;;;;31.60;20.38;;;20.20;80.80;;;;;;5046737;28;20029;-70
2021/07/17 06:18:04;;;;;;;35.22;21.58;;;20.10;81.10;;;;;;5047218;28;20045;-70
2021/07/17 06:20:30;;;;;;;35.03;20.15;;;20.10;81.20;;;;;;5047225;28;20083;-70
2021/07/17 06:22:56;;;;;;;32.35;20.58;;;20.20;81.10;;;;;;5047020;28;20048;-70
2021/07/17 06:25:21;;;;;;;32.40;20.75;;;20.20;81.00;;;;;;5045546;28;20026;-70
2021/07/17 06:27:47;;;;;;;34.85;20.15;;;20.20;81.00;;;;;;5046589;28;20030;-69
2021/07/17 06:30:13;;;;;;;31.02;20.70;;;20.20;80.80;;;;;;5047048;28;20025;-71
2021/07/17 06:32:38;;;;;;;35.25;20.75;;;20.30;80.90;;;;;;5029438;28;20037;-72
2021/07/17 06:35:05;;;;;;;36.50;21.00;;;20.20;81.00;;;;;;5028790;28;20111;-71
2021/07/17 06:37:30;;;;;;;33.95;21.70;;;20.20;81.20;;;;;;5046196;28;20074;-69
2021/07/17 06:39:56;;;;;;;35.97;21.48;;;20.20;81.40;;;;;;5046212;28;20097;-70
2021/07/17 06:42:21;;;;;;;33.22;22.02;;;20.10;81.60;;;;;;5046735;28;20033;-70
2021/07/17 06:44:47;;;;;;;34.92;20.73;;;20.10;81.50;;;;;;5046711;28;20029;-68
2021/07/17 06:47:12;;;;;;;35.47;22.00;;;20.10;81.50;;;;;;5046112;28;20259;-69
2021/07/17 06:49:38;;;;;;;30.13;20.17;;;20.10;81.70;;;;;;5046206;28;20388;-70
2021/07/17 06:52:03;;;;;;;32.95;21.33;;;20.10;81.40;;;;;;5046024;28;20340;-70
2021/07/17 06:54:29;;;;;;;33.45;20.35;;;20.10;81.10;;;;;;5045964;28;20040;-70
2021/07/17 06:56:54;;;;;;;32.58;19.77;;;20.20;81.00;;;;;;5045817;28;20017;-70
2021/07/17 06:59:20;;;;;;;32.30;20.05;;;20.20;81.00;;;;;;5046221;28;20045;-70
2021/07/17 07:01:46;;;;;;;35.40;21.85;;;20.30;80.70;;;;;;5046104;28;20217;-69
2021/07/17 07:04:11;;;;;;;37.30;21.63;;;20.30;80.50;;;;;;5046336;28;20029;-69
2021/07/17 07:06:37;;;;;;;36.50;22.13;;;20.30;80.50;;;;;;5045773;28;20090;-69
2021/07/17 07:09:02;;;;;;;37.20;22.40;;;20.30;80.70;;;;;;5046561;28;20076;-69
2021/07/17 07:11:28;;;;;;;34.40;21.80;;;20.20;81.10;;;;;;5046236;28;20052;-68
2021/07/17 07:13:53;;;;;;;32.72;20.75;;;20.20;81.10;;;;;;5044738;28;20240;-68
2021/07/17 07:16:19;;;;;;;36.13;22.27;;;20.20;81.10;;;;;;5045934;28;20025;-68
2021/07/17 07:18:44;;;;;;;33.40;21.52;;;20.30;81.00;;;;;;5045689;28;20030;-68
2021/07/17 07:21:10;;;;;;;33.13;21.30;;;20.30;80.80;;;;;;5046015;28;20029;-68
2021/07/17 07:23:36;;;;;;;35.03;21.75;;;20.30;80.80;;;;;;5045888;28;20041;-68
2021/07/17 07:26:01;;;;;;;37.92;22.67;;;20.30;80.40;;;;;;5045677;28;20113;-69
2021/07/17 07:28:27;;;;;;;38.38;23.45;;;20.30;80.60;;;;;;5044130;28;20194;-68
2021/07/17 07:30:52;;;;;;;38.35;22.25;;;20.30;80.30;;;;;;5045348;28;20041;-68
2021/07/17 07:33:18;;;;;;;36.30;22.77;;;20.30;80.20;;;;;;5046350;28;20325;-67
2021/07/17 07:35:43;;;;;;;37.05;22.48;;;20.30;80.10;;;;;;5045813;28;20072;-68
2021/07/17 07:38:09;;;;;;;36.97;23.45;;;20.40;80.10;;;;;;5045025;28;20264;-68
2021/07/17 07:40:35;;;;;;;35.60;23.13;;;20.30;80.30;;;;;;5045077;28;20042;-69
2021/07/17 07:43:00;;;;;;;41.13;22.65;;;20.30;80.20;;;;;;5045411;28;20037;-69
2021/07/17 07:45:26;;;;;;;42.78;22.38;;;20.30;80.20;;;;;;5045028;28;20080;-68
2021/07/17 07:47:52;;;;;;;40.47;23.55;;;20.40;80.10;;;;;;5045541;28;20071;-70
2021/07/17 07:50:19;;;;;;;36.05;20.95;;;20.30;80.60;;;;;;5045356;28;20332;-68
2021/07/17 07:52:45;;;;;;;37.63;23.02;;;20.30;80.40;;;;;;5027584;28;20037;-70
2021/07/17 07:55:10;;;;;;;41.60;23.52;;;20.40;80.30;;;;;;5027383;28;20091;-74
2021/07/17 07:57:36;;;;;;;40.22;23.00;;;20.40;80.00;;;;;;5027299;28;20030;-71
2021/07/17 08:00:02;;;;;;;35.17;22.58;;;20.30;80.00;;;;;;5027913;28;20156;-69
2021/07/17 08:02:27;;;;;;;36.85;21.63;;;20.30;80.10;;;;;;5027598;28;20083;-71
2021/07/17 08:04:54;;;;;;;40.35;23.20;;;20.30;80.20;;;;;;5044973;28;20037;-72
2021/07/17 08:07:19;;;;;;;40.28;22.75;;;20.40;80.00;;;;;;5026589;28;20303;-72
2021/07/17 08:09:45;;;;;;;35.97;21.13;;;20.50;80.00;;;;;;5027029;28;20032;-72
2021/07/17 08:12:10;;;;;;;36.10;22.40;;;20.40;80.30;;;;;;5045089;28;20029;-72
2021/07/17 08:14:36;;;;;;;40.22;22.10;;;20.40;80.20;;;;;;5027538;28;20186;-72
2021/07/17 08:17:04;;;;;;;35.85;21.33;;;20.40;79.90;;;;;;5027232;28;20034;-72
2021/07/17 08:19:29;;;;;;;36.05;21.73;;;20.50;79.90;;;;;;5044600;28;20044;-71
2021/07/17 08:21:55;;;;;;;37.20;22.63;;;20.50;80.00;;;;;;5044368;28;20021;-72
2021/07/17 08:24:20;;;;;;;36.35;22.10;;;20.50;80.00;;;;;;5045066;28;20367;-73
2021/07/17 08:26:46;;;;;;;37.17;21.42;;;20.50;79.90;;;;;;5027341;28;20033;-72
2021/07/17 08:29:11;;;;;;;35.20;20.80;;;20.60;79.80;;;;;;5044273;28;20033;-71
2021/07/17 08:31:37;;;;;;;39.35;21.00;;;20.60;79.80;;;;;;5010325;28;20025;-72
2021/07/17 08:34:02;;;;;;;34.97;20.45;;;20.50;80.10;;;;;;5026760;28;20340;-71
2021/07/17 08:36:28;;;;;;;34.95;22.10;;;20.60;80.00;;;;;;5026684;28;20125;-71
2021/07/17 08:38:53;;;;;;;29.67;19.25;;;20.60;79.60;;;;;;5044515;28;20049;-71
2021/07/17 08:41:25;;;;;;;34.05;19.77;;;20.70;79.50;;;;;;5043679;28;20049;-70
2021/07/17 08:43:53;;;;;;;29.50;18.45;;;20.60;79.70;;;;;;5010623;28;20076;-71
2021/07/17 08:46:18;;;;;;;27.75;18.50;;;20.60;79.80;;;;;;5025917;28;20041;-71
2021/07/17 08:48:44;;;;;;;32.05;19.80;;;20.50;80.10;;;;;;5043845;28;20083;-71
2021/07/17 08:51:10;;;;;;;35.50;20.80;;;20.60;79.70;;;;;;5044373;28;20071;-71
2021/07/17 08:53:36;;;;;;;30.58;20.42;;;20.60;79.50;;;;;;5044360;28;20057;-71
2021/07/17 08:56:01;;;;;;;32.50;18.92;;;20.60;79.60;;;;;;5026187;28;20240;-71
2021/07/17 08:58:27;;;;;;;34.50;20.60;;;20.60;79.50;;;;;;5042999;28;20332;-71
2021/07/17 09:00:53;;;;;;;30.83;19.42;;;20.70;79.30;;;;;;5043641;28;20041;-71
2021/07/17 09:03:19;;;;;;;31.27;20.00;;;20.60;79.50;;;;;;5026669;28;20057;-71
2021/07/17 09:05:46;;;;;;;28.88;18.50;;;20.70;79.30;;;;;;5026770;28;20278;-71
2021/07/17 09:08:13;;;;;;;33.58;20.15;;;20.70;79.40;;;;;;5026296;28;20046;-71
2021/07/17 09:10:43;;;;;;;28.05;17.50;;;20.80;79.20;;;;;;5026292;28;20033;-71
2021/07/17 09:13:13;;;;;;;29.60;18.65;;;20.80;79.20;;;;;;5026043;28;20033;-71
2021/07/17 09:15:48;;;;;;;30.65;19.27;;;20.80;79.00;;;;;;5026204;28;20030;-71
2021/07/17 09:18:13;;;;;;;33.30;20.40;;;20.80;79.10;;;;;;5043931;28;20032;-71
2021/07/17 09:20:39;;;;;;;29.92;18.05;;;20.80;79.50;;;;;;5026360;28;20037;-71
2021/07/17 09:23:06;;;;;;;28.67;18.02;;;20.80;79.20;;;;;;5043377;28;20206;-71
2021/07/17 09:25:43;;;;;;;32.10;19.92;;;20.80;79.10;;;;;;5026196;28;20090;-71
2021/07/17 09:28:19;;;;;;;29.98;18.48;;;20.80;79.20;;;;;;5043059;28;20332;-71
2021/07/17 09:30:45;;;;;;;31.73;18.98;;;20.90;78.90;;;;;;5043544;28;20029;-71
2021/07/17 09:33:11;;;;;;;29.40;19.63;;;20.90;78.90;;;;;;5026461;28;20022;-71
2021/07/17 09:35:38;;;;;;;30.33;19.40;;;21.00;78.70;;;;;;5043530;28;20033;-71
2021/07/17 09:38:05;;;;;;;32.45;19.95;;;21.00;78.90;;;;;;5022074;28;20069;-71
2021/07/17 09:41:04;;;;;;;29.60;19.42;;;21.00;78.90;;;;;;5022529;28;20400;-71
2021/07/17 09:43:43;;;;;;;27.23;19.40;;;21.10;78.60;;;;;;5016243;28;20104;-71
2021/07/17 09:46:20;;;;;;;27.50;17.90;;;21.10;78.40;;;;;;5022491;28;20030;-71
2021/07/17 09:48:47;;;;;;;26.83;18.25;;;21.20;78.60;;;;;;5022719;28;20034;-71
2021/07/17 09:51:17;;;;;;;26.48;17.98;;;21.30;78.20;;;;;;5023219;28;20329;-71
2021/07/17 09:53:50;;;;;;;30.80;17.80;;;21.40;78.40;;;;;;5023010;28;20057;-70
2021/07/17 09:56:16;;;;;;;26.27;16.60;;;21.50;78.60;;;;;;5022829;28;20030;-71
2021/07/17 09:58:42;;;;;;;24.88;15.90;;;21.50;77.80;;;;;;5022778;28;20081;-71
2021/07/17 10:01:31;;;;;;;22.48;16.05;;;21.50;77.60;;;;;;5005721;28;20050;-71
2021/07/17 10:04:02;;;;;;;23.95;16.30;;;21.60;77.70;;;;;;5014958;28;20030;-72
2021/07/17 10:06:31;;;;;;;23.73;15.18;;;21.60;77.30;;;;;;5022260;28;20041;-71
2021/07/17 10:08:57;;;;;;;24.45;15.30;;;21.70;77.30;;;;;;5023238;28;20195;-71
2021/07/17 10:11:23;;;;;;;22.38;14.68;;;21.80;77.00;;;;;;5022692;28;20045;-71
2021/07/17 10:13:49;;;;;;;23.38;14.93;;;21.80;76.70;;;;;;5022143;28;20041;-70
2021/07/17 10:16:16;;;;;;;23.10;14.20;;;21.80;76.40;;;;;;4989747;28;20328;-71
2021/07/17 10:18:42;;;;;;;24.80;14.60;;;21.70;76.50;;;;;;5021990;28;20026;-71
2021/07/17 10:21:07;;;;;;;25.52;14.52;;;21.80;76.10;;;;;;5006113;28;20045;-71
2021/07/17 10:23:33;;;;;;;22.98;14.13;;;21.70;76.40;;;;;;4989865;28;20237;-71
2021/07/17 10:26:00;;;;;;;17.55;12.80;;;21.80;76.40;;;;;;5022058;28;20156;-71
2021/07/17 10:28:26;;;;;;;22.17;13.30;;;21.70;76.60;;;;;;5022196;28;20318;-71
2021/07/17 10:30:51;;;;;;;21.33;13.27;;;21.70;76.10;;;;;;5023132;28;20036;-71
2021/07/17 10:33:17;;;;;;;21.17;14.45;;;21.70;76.60;;;;;;5026165;28;20261;-71
2021/07/17 10:35:46;;;;;;;21.45;14.25;;;21.60;76.80;;;;;;5026110;28;20030;-71
2021/07/17 10:38:13;;;;;;;22.42;14.25;;;21.70;76.90;;;;;;5025304;28;20064;-71
2021/07/17 10:40:38;;;;;;;24.25;15.05;;;21.60;77.20;;;;;;5025447;28;20050;-71
2021/07/17 10:43:04;;;;;;;24.17;14.38;;;21.60;77.50;;;;;;5025492;28;20030;-71
2021/07/17 10:45:47;;;;;;;26.75;15.30;;;21.60;77.70;;;;;;5025210;28;20325;-71
2021/07/17 10:48:33;;;;;;;25.80;15.93;;;21.60;78.00;;;;;;5026121;28;20030;-71
2021/07/17 10:51:04;;;;;;;24.17;15.20;;;21.50;77.90;;;;;;5026080;28;20318;-71
2021/07/17 10:53:44;;;;;;;25.83;15.82;;;21.50;77.80;;;;;;5025692;28;20026;-71
2021/07/17 10:56:27;;;;;;;22.85;13.70;;;21.50;78.20;;;;;;5026620;28;20037;-71
2021/07/17 10:58:57;;;;;;;22.83;14.50;;;21.50;77.90;;;;;;5026390;28;20034;-71
2021/07/17 11:01:22;;;;;;;19.88;13.68;;;21.50;77.90;;;;;;5025100;28;20041;-71
2021/07/17 11:03:48;;;;;;;20.30;14.30;;;21.60;78.00;;;;;;5026216;28;20034;-71
2021/07/17 11:06:27;;;;;;;21.42;14.25;;;21.60;77.90;;;;;;5026544;28;20038;-71
2021/07/17 11:08:57;;;;;;;23.92;13.65;;;21.50;77.80;;;;;;5026704;28;20038;-71
2021/07/17 11:11:30;;;;;;;23.73;14.30;;;21.50;78.10;;;;;;5025763;28;20052;-71
2021/07/17 11:14:05;;;;;;;23.73;14.15;;;21.50;78.00;;;;;;5025845;28;20038;-71
2021/07/17 11:16:47;;;;;;;21.65;15.00;;;21.50;78.10;;;;;;5026016;28;20076;-71
2021/07/17 11:19:25;;;;;;;25.98;15.15;;;21.60;78.40;;;;;;5024699;28;20034;-71
2021/07/17 11:21:51;;;;;;;27.60;14.90;;;21.50;78.60;;;;;;5041263;28;20029;-71
2021/07/17 11:24:17;;;;;;;18.83;13.70;;;21.50;78.90;;;;;;5025037;28;20025;-71
2021/07/17 11:26:43;;;;;;;21.13;14.07;;;21.50;78.90;;;;;;5026214;28;20400;-71
2021/07/17 11:29:10;;;;;;;24.63;14.25;;;21.50;78.90;;;;;;5007963;28;20341;-71
2021/07/17 11:31:39;;;;;;;24.17;14.55;;;21.40;79.10;;;;;;5025596;28;20085;-71
2021/07/17 11:34:14;;;;;;;24.50;15.60;;;21.30;79.10;;;;;;5024571;28;20248;-72
2021/07/17 11:36:58;;;;;;;27.67;16.40;;;21.30;79.20;;;;;;5025617;28;20236;-72
2021/07/17 11:39:26;;;;;;;24.55;14.02;;;21.30;79.90;;;;;;5024454;28;20064;-71
2021/07/17 11:41:52;;;;;;;21.95;13.65;;;21.30;79.50;;;;;;5024625;28;20034;-71
2021/07/17 11:44:17;;;;;;;24.30;14.82;;;21.40;79.40;;;;;;5024844;28;20033;-72
2021/07/17 11:47:13;;;;;;;21.35;14.05;;;21.50;79.40;;;;;;5025274;28;20076;-71
2021/07/17 11:49:44;;;;;;;21.30;13.50;;;21.50;79.90;;;;;;5012312;28;20038;-71
2021/07/17 11:52:10;;;;;;;;;;;21.60;79.80;;;;;;5024972;28;20034;-71
2021/07/17 11:54:50;;;;;;;24.33;15.00;;;21.80;79.70;;;;;;5024013;28;20185;-71
2021/07/17 11:57:21;;;;;;;28.40;15.93;;;21.80;80.20;;;;;;5026283;28;20033;-71
2021/07/17 11:59:53;;;;;;;25.05;15.27;;;21.90;80.10;;;;;;5024127;28;20341;-71
2021/07/17 12:02:19;;;;;;;26.92;16.25;;;21.90;79.90;;;;;;5025272;28;20034;-71
2021/07/17 12:04:46;;;;;;;29.35;16.63;;;21.80;79.70;;;;;;5024833;28;20044;-71
2021/07/17 12:07:26;;;;;;;29.27;16.10;;;21.80;79.40;;;;;;5024104;28;20030;-72
2021/07/17 12:09:53;;;;;;;28.65;15.70;;;21.80;78.90;;;;;;5024273;28;20034;-71
2021/07/17 12:12:42;;;;;;;25.27;14.65;;;21.70;79.10;;;;;;5024679;28;20221;-71
2021/07/17 12:15:23;;;;;;;24.60;14.68;;;21.80;78.40;;;;;;5024561;28;20186;-71
2021/07/17 12:17:58;;;;;;;25.80;15.10;;;21.70;78.70;;;;;;5024602;28;20217;-71
2021/07/17 12:20:40;;;;;;;28.85;15.52;;;21.60;78.70;;;;;;5023873;28;20038;-71
2021/07/17 12:23:16;;;;;;;27.83;15.05;;;21.70;78.30;;;;;;5024854;28;20106;-72
2021/07/17 12:25:42;;;;;;;25.20;14.73;;;21.80;78.20;;;;;;5023847;28;20037;-72
2021/07/17 12:28:13;;;;;;;23.98;15.30;;;21.80;78.20;;;;;;5007616;28;20030;-71
2021/07/17 12:30:49;;;;;;;28.10;14.63;;;21.70;78.20;;;;;;5024497;28;20036;-71
2021/07/17 12:33:35;;;;;;;27.15;13.68;;;21.80;78.00;;;;;;5023824;28;20038;-72
2021/07/17 12:36:17;;;;;;;23.13;13.50;;;21.80;78.00;;;;;;5024188;28;20071;-72